sensor_id;sensor_type;location;lat;lon;timestamp;temperature;humidity
41294;DHT22;27037;52.010;4.446;2022-12-10T00:00:54;0.90;99.90
41294;DHT22;27037;52.010;4.446;2022-12-10T00:03:19;0.90;99.90
41294;DHT22;27037;52.010;4.446;2022-12-10T00:05:45;0.90;99.90
41294;DHT22;27037;52.010;4.446;2022-12-10T00:08:10;0.90;99.90
41294;DHT22;27037;52.010;4.446;2022-12-10T00:10:39;0.80;99.90
41294;DHT22;27037;52.010;4.446;2022-12-10T00:13:05;0.80;99.90
41294;DHT22;27037;52.010;4.446;2022-12-10T00:15:34;0.80;99.90
41294;DHT22;27037;52.010;4.446;2022-12-10T00:18:00;0.80;99.90
41294;DHT22;27037;52.010;4.446;2022-12-10T00:20:25;0.70;99.90
41294;DHT22;27037;52.010;4.446;2022-12-10T00:22:51;0.70;99.90
41294;DHT22;27037;52.010;4.446;2022-12-10T00:25:16;0.70;99.90
41294;DHT22;27037;52.010;4.446;2022-12-10T00:27:42;0.70;99.90
41294;DHT22;27037;52.010;4.446;2022-12-10T00:30:08;0.60;99.90
41294;DHT22;27037;52.010;4.446;2022-12-10T00:32:34;0.60;99.90
41294;DHT22;27037;52.010;4.446;2022-12-10T00:35:00;0.60;99.90
41294;DHT22;27037;52.010;4.446;2022-12-10T00:37:25;0.60;99.90
41294;DHT22;27037;52.010;4.446;2022-12-10T00:39:51;0.60;99.90
41294;DHT22;27037;52.010;4.446;2022-12-10T00:42:16;0.60;99.90
41294;DHT22;27037;52.010;4.446;2022-12-10T00:44:42;0.50;99.90
41294;DHT22;27037;52.010;4.446;2022-12-10T00:47:07;0.50;99.90
41294;DHT22;27037;52.010;4.446;2022-12-10T00:49:33;0.50;99.90
41294;DHT22;27037;52.010;4.446;2022-12-10T00:51:59;0.50;99.90
41294;DHT22;27037;52.010;4.446;2022-12-10T00:54:24;0.50;99.90
41294;DHT22;27037;52.010;4.446;2022-12-10T00:56:50;0.40;99.90
41294;DHT22;27037;52.010;4.446;2022-12-10T00:59:15;0.40;99.90
41294;DHT22;27037;52.010;4.446;2022-12-10T01:01:42;0.40;99.90
41294;DHT22;27037;52.010;4.446;2022-12-10T01:04:14;0.40;99.90
41294;DHT22;27037;52.010;4.446;2022-12-10T01:06:48;0.40;99.90
41294;DHT22;27037;52.010;4.446;2022-12-10T01:09:17;0.40;99.90
41294;DHT22;27037;52.010;4.446;2022-12-10T01:11:44;0.40;99.90
41294;DHT22;27037;52.010;4.446;2022-12-10T01:14:12;0.40;99.90
41294;DHT22;27037;52.010;4.446;2022-12-10T01:16:38;0.40;99.90
41294;DHT22;27037;52.010;4.446;2022-12-10T01:19:04;0.40;99.90
41294;DHT22;27037;52.010;4.446;2022-12-10T01:21:30;0.40;99.90
41294;DHT22;27037;52.010;4.446;2022-12-10T01:23:57;0.50;99.90
41294;DHT22;27037;52.010;4.446;2022-12-10T01:26:26;0.50;99.90
41294;DHT22;27037;52.010;4.446;2022-12-10T01:28:52;0.50;99.90
41294;DHT22;27037;52.010;4.446;2022-12-10T01:31:39;0.50;99.90
41294;DHT22;27037;52.010;4.446;2022-12-10T01:34:07;0.50;99.90
41294;DHT22;27037;52.010;4.446;2022-12-10T01:36:35;0.50;99.90
41294;DHT22;27037;52.010;4.446;2022-12-10T01:39:02;0.60;99.90
41294;DHT22;27037;52.010;4.446;2022-12-10T01:41:34;0.60;99.90
41294;DHT22;27037;52.010;4.446;2022-12-10T01:46:29;0.70;99.90
41294;DHT22;27037;52.010;4.446;2022-12-10T01:48:56;0.70;99.90
41294;DHT22;27037;52.010;4.446;2022-12-10T01:51:23;0.70;99.90
41294;DHT22;27037;52.010;4.446;2022-12-10T01:53:49;0.70;99.90
41294;DHT22;27037;52.010;4.446;2022-12-10T01:56:17;0.80;99.90
41294;DHT22;27037;52.010;4.446;2022-12-10T01:58:43;0.80;99.90
41294;DHT22;27037;52.010;4.446;2022-12-10T02:09:55;0.80;99.90
41294;DHT22;27037;52.010;4.446;2022-12-10T02:12:46;0.80;99.90
41294;DHT22;27037;52.010;4.446;2022-12-10T02:15:19;0.80;99.90
41294;DHT22;27037;52.010;4.446;2022-12-10T02:17:52;0.80;99.90
41294;DHT22;27037;52.010;4.446;2022-12-10T02:23:17;0.90;99.90
41294;DHT22;27037;52.010;4.446;2022-12-10T02:25:49;0.90;99.90
41294;DHT22;27037;52.010;4.446;2022-12-10T02:28:25;0.90;99.90
41294;DHT22;27037;52.010;4.446;2022-12-10T02:30:51;0.90;99.90
41294;DHT22;27037;52.010;4.446;2022-12-10T02:33:19;0.90;99.90
41294;DHT22;27037;52.010;4.446;2022-12-10T02:35:47;0.90;99.90
41294;DHT22;27037;52.010;4.446;2022-12-10T02:38:24;0.90;99.90
41294;DHT22;27037;52.010;4.446;2022-12-10T02:40:55;0.90;99.90
41294;DHT22;27037;52.010;4.446;2022-12-10T02:43:24;0.90;99.90
41294;DHT22;27037;52.010;4.446;2022-12-10T02:45:52;0.90;99.90
41294;DHT22;27037;52.010;4.446;2022-12-10T02:48:18;0.90;99.90
41294;DHT22;27037;52.010;4.446;2022-12-10T02:50:44;0.90;99.90
41294;DHT22;27037;52.010;4.446;2022-12-10T02:53:10;0.90;99.90
41294;DHT22;27037;52.010;4.446;2022-12-10T02:58:50;0.90;99.90
41294;DHT22;27037;52.010;4.446;2022-12-10T03:01:37;0.90;99.90
41294;DHT22;27037;52.010;4.446;2022-12-10T03:06:50;0.90;99.90
41294;DHT22;27037;52.010;4.446;2022-12-10T03:09:23;0.90;99.90
41294;DHT22;27037;52.010;4.446;2022-12-10T03:11:58;0.90;99.90
41294;DHT22;27037;52.010;4.446;2022-12-10T03:14:27;0.90;99.90
41294;DHT22;27037;52.010;4.446;2022-12-10T03:16:59;0.90;99.90
41294;DHT22;27037;52.010;4.446;2022-12-10T03:19:34;1.00;99.90
41294;DHT22;27037;52.010;4.446;2022-12-10T03:22:02;1.00;99.90
41294;DHT22;27037;52.010;4.446;2022-12-10T03:24:28;1.00;99.90
41294;DHT22;27037;52.010;4.446;2022-12-10T03:26:57;1.10;99.90
41294;DHT22;27037;52.010;4.446;2022-12-10T03:29:31;1.10;99.90
41294;DHT22;27037;52.010;4.446;2022-12-10T03:31:59;1.10;99.90
41294;DHT22;27037;52.010;4.446;2022-12-10T03:34:25;1.00;99.90
41294;DHT22;27037;52.010;4.446;2022-12-10T03:36:51;1.10;99.90
41294;DHT22;27037;52.010;4.446;2022-12-10T03:39:18;1.00;99.90
41294;DHT22;27037;52.010;4.446;2022-12-10T03:41:43;1.00;99.90
41294;DHT22;27037;52.010;4.446;2022-12-10T03:44:09;1.00;99.90
41294;DHT22;27037;52.010;4.446;2022-12-10T03:46:35;1.00;99.90
41294;DHT22;27037;52.010;4.446;2022-12-10T03:49:03;1.00;99.90
41294;DHT22;27037;52.010;4.446;2022-12-10T03:51:29;1.00;99.90
41294;DHT22;27037;52.010;4.446;2022-12-10T03:53:54;1.10;99.90
41294;DHT22;27037;52.010;4.446;2022-12-10T03:56:21;1.00;99.90
41294;DHT22;27037;52.010;4.446;2022-12-10T03:58:47;1.10;99.90
41294;DHT22;27037;52.010;4.446;2022-12-10T04:01:13;1.10;99.90
41294;DHT22;27037;52.010;4.446;2022-12-10T04:03:41;1.10;99.90
41294;DHT22;27037;52.010;4.446;2022-12-10T04:06:13;1.10;99.90
41294;DHT22;27037;52.010;4.446;2022-12-10T04:08:39;1.10;99.90
41294;DHT22;27037;52.010;4.446;2022-12-10T04:11:08;1.10;99.90
41294;DHT22;27037;52.010;4.446;2022-12-10T04:13:36;1.10;99.90
41294;DHT22;27037;52.010;4.446;2022-12-10T04:16:20;1.00;99.90
41294;DHT22;27037;52.010;4.446;2022-12-10T04:18:56;1.00;99.90
41294;DHT22;27037;52.010;4.446;2022-12-10T04:21:22;1.00;99.90
41294;DHT22;27037;52.010;4.446;2022-12-10T04:24:11;1.00;99.90
41294;DHT22;27037;52.010;4.446;2022-12-10T04:26:58;1.00;99.90
41294;DHT22;27037;52.010;4.446;2022-12-10T04:29:28;1.10;99.90
41294;DHT22;27037;52.010;4.446;2022-12-10T04:31:54;1.10;99.90
41294;DHT22;27037;52.010;4.446;2022-12-10T04:34:20;1.10;99.90
41294;DHT22;27037;52.010;4.446;2022-12-10T04:36:46;1.10;99.90
41294;DHT22;27037;52.010;4.446;2022-12-10T04:39:12;1.10;99.90
41294;DHT22;27037;52.010;4.446;2022-12-10T04:41:40;1.10;99.90
41294;DHT22;27037;52.010;4.446;2022-12-10T04:44:07;1.10;99.90
41294;DHT22;27037;52.010;4.446;2022-12-10T04:46:32;1.10;99.90
41294;DHT22;27037;52.010;4.446;2022-12-10T04:48:58;1.10;99.90
41294;DHT22;27037;52.010;4.446;2022-12-10T04:51:24;1.10;99.90
41294;DHT22;27037;52.010;4.446;2022-12-10T04:53:49;1.10;99.90
41294;DHT22;27037;52.010;4.446;2022-12-10T04:56:15;1.20;99.90
41294;DHT22;27037;52.010;4.446;2022-12-10T04:58:40;1.20;99.90
41294;DHT22;27037;52.010;4.446;2022-12-10T05:01:09;1.20;99.90
41294;DHT22;27037;52.010;4.446;2022-12-10T05:03:36;1.20;99.90
41294;DHT22;27037;52.010;4.446;2022-12-10T05:06:06;1.20;99.90
41294;DHT22;27037;52.010;4.446;2022-12-10T05:08:33;1.20;99.90
41294;DHT22;27037;52.010;4.446;2022-12-10T05:11:04;1.20;99.90
41294;DHT22;27037;52.010;4.446;2022-12-10T05:13:30;1.20;99.90
41294;DHT22;27037;52.010;4.446;2022-12-10T05:15:57;1.20;99.90
41294;DHT22;27037;52.010;4.446;2022-12-10T05:18:23;1.20;99.90
41294;DHT22;27037;52.010;4.446;2022-12-10T05:20:49;1.20;99.90
41294;DHT22;27037;52.010;4.446;2022-12-10T05:23:14;1.20;99.90
41294;DHT22;27037;52.010;4.446;2022-12-10T05:26:18;1.20;99.90
41294;DHT22;27037;52.010;4.446;2022-12-10T05:28:55;1.20;99.90
41294;DHT22;27037;52.010;4.446;2022-12-10T05:31:26;1.10;99.90
41294;DHT22;27037;52.010;4.446;2022-12-10T05:33:54;1.10;99.90
41294;DHT22;27037;52.010;4.446;2022-12-10T05:36:22;1.10;99.90
41294;DHT22;27037;52.010;4.446;2022-12-10T05:38:48;1.20;99.90
41294;DHT22;27037;52.010;4.446;2022-12-10T05:41:17;1.20;99.90
41294;DHT22;27037;52.010;4.446;2022-12-10T05:43:43;1.10;99.90
41294;DHT22;27037;52.010;4.446;2022-12-10T05:46:11;1.10;99.90
41294;DHT22;27037;52.010;4.446;2022-12-10T05:48:38;1.10;99.90
41294;DHT22;27037;52.010;4.446;2022-12-10T05:51:08;1.10;99.90
41294;DHT22;27037;52.010;4.446;2022-12-10T05:53:35;1.20;99.90
41294;DHT22;27037;52.010;4.446;2022-12-10T05:56:03;1.10;99.90
41294;DHT22;27037;52.010;4.446;2022-12-10T05:58:30;1.10;99.90
41294;DHT22;27037;52.010;4.446;2022-12-10T06:00:56;1.10;99.90
41294;DHT22;27037;52.010;4.446;2022-12-10T06:03:23;1.20;99.90
41294;DHT22;27037;52.010;4.446;2022-12-10T06:05:49;1.20;99.90
41294;DHT22;27037;52.010;4.446;2022-12-10T06:08:14;1.20;99.90
41294;DHT22;27037;52.010;4.446;2022-12-10T06:10:40;1.20;99.90
41294;DHT22;27037;52.010;4.446;2022-12-10T06:13:05;1.30;99.90
41294;DHT22;27037;52.010;4.446;2022-12-10T06:15:32;1.30;99.90
41294;DHT22;27037;52.010;4.446;2022-12-10T06:17:58;1.30;99.90
41294;DHT22;27037;52.010;4.446;2022-12-10T06:20:25;1.30;99.90
41294;DHT22;27037;52.010;4.446;2022-12-10T06:22:51;1.30;99.90
41294;DHT22;27037;52.010;4.446;2022-12-10T06:25:17;1.30;99.90
41294;DHT22;27037;52.010;4.446;2022-12-10T06:27:43;1.30;99.90
41294;DHT22;27037;52.010;4.446;2022-12-10T06:30:09;1.30;99.90
41294;DHT22;27037;52.010;4.446;2022-12-10T06:32:35;1.30;99.90
41294;DHT22;27037;52.010;4.446;2022-12-10T06:35:02;1.30;99.90
41294;DHT22;27037;52.010;4.446;2022-12-10T06:37:28;1.20;99.90
41294;DHT22;27037;52.010;4.446;2022-12-10T06:39:53;1.20;99.90
41294;DHT22;27037;52.010;4.446;2022-12-10T06:42:20;1.20;99.90
41294;DHT22;27037;52.010;4.446;2022-12-10T06:44:46;1.10;99.90
41294;DHT22;27037;52.010;4.446;2022-12-10T06:47:12;1.10;99.90
41294;DHT22;27037;52.010;4.446;2022-12-10T06:49:38;1.10;99.90
41294;DHT22;27037;52.010;4.446;2022-12-10T06:52:04;1.10;99.90
41294;DHT22;27037;52.010;4.446;2022-12-10T06:54:30;1.10;99.90
41294;DHT22;27037;52.010;4.446;2022-12-10T06:56:56;1.10;99.90
41294;DHT22;27037;52.010;4.446;2022-12-10T06:59:22;1.10;99.90
41294;DHT22;27037;52.010;4.446;2022-12-10T07:01:47;1.10;99.90
41294;DHT22;27037;52.010;4.446;2022-12-10T07:04:13;1.10;99.90
41294;DHT22;27037;52.010;4.446;2022-12-10T07:06:39;1.10;99.90
41294;DHT22;27037;52.010;4.446;2022-12-10T07:09:04;1.10;99.90
41294;DHT22;27037;52.010;4.446;2022-12-10T07:11:30;1.10;99.90
41294;DHT22;27037;52.010;4.446;2022-12-10T07:13:57;1.10;99.90
41294;DHT22;27037;52.010;4.446;2022-12-10T07:16:28;1.10;99.90
41294;DHT22;27037;52.010;4.446;2022-12-10T07:18:55;1.10;99.90
41294;DHT22;27037;52.010;4.446;2022-12-10T07:21:32;1.10;99.90
41294;DHT22;27037;52.010;4.446;2022-12-10T07:24:05;1.10;99.90
41294;DHT22;27037;52.010;4.446;2022-12-10T07:26:33;1.10;99.90
41294;DHT22;27037;52.010;4.446;2022-12-10T07:29:00;1.10;99.90
41294;DHT22;27037;52.010;4.446;2022-12-10T07:31:27;1.10;99.90
41294;DHT22;27037;52.010;4.446;2022-12-10T07:33:53;1.10;99.90
41294;DHT22;27037;52.010;4.446;2022-12-10T07:36:21;1.10;99.90
41294;DHT22;27037;52.010;4.446;2022-12-10T07:38:48;1.10;99.90
41294;DHT22;27037;52.010;4.446;2022-12-10T07:41:14;1.10;99.90
41294;DHT22;27037;52.010;4.446;2022-12-10T07:43:41;1.10;99.90
41294;DHT22;27037;52.010;4.446;2022-12-10T07:46:12;1.10;99.90
41294;DHT22;27037;52.010;4.446;2022-12-10T07:48:40;1.10;99.90
41294;DHT22;27037;52.010;4.446;2022-12-10T07:51:06;1.10;99.90
41294;DHT22;27037;52.010;4.446;2022-12-10T07:53:32;1.10;99.90
41294;DHT22;27037;52.010;4.446;2022-12-10T07:55:58;1.20;99.90
41294;DHT22;27037;52.010;4.446;2022-12-10T07:58:23;1.10;99.90
41294;DHT22;27037;52.010;4.446;2022-12-10T08:00:49;1.20;99.90
41294;DHT22;27037;52.010;4.446;2022-12-10T08:03:15;1.20;99.90
41294;DHT22;27037;52.010;4.446;2022-12-10T08:05:40;1.20;99.90
41294;DHT22;27037;52.010;4.446;2022-12-10T08:08:06;1.20;99.90
41294;DHT22;27037;52.010;4.446;2022-12-10T08:10:38;1.30;99.90
41294;DHT22;27037;52.010;4.446;2022-12-10T08:13:05;1.30;99.90
41294;DHT22;27037;52.010;4.446;2022-12-10T08:15:31;1.30;99.90
41294;DHT22;27037;52.010;4.446;2022-12-10T08:17:57;1.30;99.90
41294;DHT22;27037;52.010;4.446;2022-12-10T08:20:24;1.30;99.90
41294;DHT22;27037;52.010;4.446;2022-12-10T08:22:50;1.30;99.90
41294;DHT22;27037;52.010;4.446;2022-12-10T08:25:16;1.30;99.90
41294;DHT22;27037;52.010;4.446;2022-12-10T08:27:42;1.30;99.90
41294;DHT22;27037;52.010;4.446;2022-12-10T08:30:08;1.30;99.90
41294;DHT22;27037;52.010;4.446;2022-12-10T08:32:34;1.30;99.90
41294;DHT22;27037;52.010;4.446;2022-12-10T08:34:59;1.30;99.90
41294;DHT22;27037;52.010;4.446;2022-12-10T08:37:25;1.30;99.90
41294;DHT22;27037;52.010;4.446;2022-12-10T08:39:50;1.20;99.90
41294;DHT22;27037;52.010;4.446;2022-12-10T08:42:16;1.30;99.90
41294;DHT22;27037;52.010;4.446;2022-12-10T08:44:41;1.20;99.90
41294;DHT22;27037;52.010;4.446;2022-12-10T08:47:07;1.20;99.90
41294;DHT22;27037;52.010;4.446;2022-12-10T08:49:33;1.20;99.90
41294;DHT22;27037;52.010;4.446;2022-12-10T08:51:58;1.20;99.90
41294;DHT22;27037;52.010;4.446;2022-12-10T08:54:24;1.20;99.90
41294;DHT22;27037;52.010;4.446;2022-12-10T08:56:50;1.20;99.90
41294;DHT22;27037;52.010;4.446;2022-12-10T08:59:16;1.20;99.90
41294;DHT22;27037;52.010;4.446;2022-12-10T09:01:41;1.20;99.90
41294;DHT22;27037;52.010;4.446;2022-12-10T09:04:07;1.20;99.90
41294;DHT22;27037;52.010;4.446;2022-12-10T09:06:33;1.20;99.90
41294;DHT22;27037;52.010;4.446;2022-12-10T09:08:58;1.20;99.90
41294;DHT22;27037;52.010;4.446;2022-12-10T09:11:30;1.20;99.90
41294;DHT22;27037;52.010;4.446;2022-12-10T09:13:56;1.20;99.90
41294;DHT22;27037;52.010;4.446;2022-12-10T09:16:28;1.20;99.90
41294;DHT22;27037;52.010;4.446;2022-12-10T09:18:54;1.10;99.90
41294;DHT22;27037;52.010;4.446;2022-12-10T09:21:20;1.10;99.90
41294;DHT22;27037;52.010;4.446;2022-12-10T09:23:46;1.10;99.90
41294;DHT22;27037;52.010;4.446;2022-12-10T09:26:13;1.10;99.90
41294;DHT22;27037;52.010;4.446;2022-12-10T09:28:40;1.00;99.90
41294;DHT22;27037;52.010;4.446;2022-12-10T09:31:07;1.00;99.90
41294;DHT22;27037;52.010;4.446;2022-12-10T09:33:33;1.10;99.90
41294;DHT22;27037;52.010;4.446;2022-12-10T09:35:59;1.10;99.90
41294;DHT22;27037;52.010;4.446;2022-12-10T09:38:25;1.10;99.90
41294;DHT22;27037;52.010;4.446;2022-12-10T09:41:01;1.10;99.90
41294;DHT22;27037;52.010;4.446;2022-12-10T09:49:09;1.10;99.90
41294;DHT22;27037;52.010;4.446;2022-12-10T09:51:37;1.20;99.90
41294;DHT22;27037;52.010;4.446;2022-12-10T09:54:24;1.20;99.90
41294;DHT22;27037;52.010;4.446;2022-12-10T09:56:52;1.30;99.90
41294;DHT22;27037;52.010;4.446;2022-12-10T09:59:27;1.30;99.90
41294;DHT22;27037;52.010;4.446;2022-12-10T10:04:35;1.30;99.90
41294;DHT22;27037;52.010;4.446;2022-12-10T10:07:01;1.20;99.90
41294;DHT22;27037;52.010;4.446;2022-12-10T10:09:27;1.20;99.90
41294;DHT22;27037;52.010;4.446;2022-12-10T10:11:53;1.10;99.90
41294;DHT22;27037;52.010;4.446;2022-12-10T10:14:26;1.10;99.90
41294;DHT22;27037;52.010;4.446;2022-12-10T10:17:01;1.10;99.90
41294;DHT22;27037;52.010;4.446;2022-12-10T10:19:31;1.10;99.90
41294;DHT22;27037;52.010;4.446;2022-12-10T10:22:00;1.10;99.90
41294;DHT22;27037;52.010;4.446;2022-12-10T10:24:33;1.10;99.90
41294;DHT22;27037;52.010;4.446;2022-12-10T10:27:14;1.10;99.90
41294;DHT22;27037;52.010;4.446;2022-12-10T10:29:42;1.10;99.90
41294;DHT22;27037;52.010;4.446;2022-12-10T10:32:16;1.10;99.90
41294;DHT22;27037;52.010;4.446;2022-12-10T10:34:42;1.20;99.90
41294;DHT22;27037;52.010;4.446;2022-12-10T10:37:23;1.20;99.90
41294;DHT22;27037;52.010;4.446;2022-12-10T10:39:51;1.20;99.90
41294;DHT22;27037;52.010;4.446;2022-12-10T10:42:40;1.20;99.90
41294;DHT22;27037;52.010;4.446;2022-12-10T10:45:32;1.10;99.90
41294;DHT22;27037;52.010;4.446;2022-12-10T10:48:26;1.10;99.90
41294;DHT22;27037;52.010;4.446;2022-12-10T10:50:56;1.10;99.90
41294;DHT22;27037;52.010;4.446;2022-12-10T10:53:33;1.10;99.90
41294;DHT22;27037;52.010;4.446;2022-12-10T10:56:10;1.10;99.90
41294;DHT22;27037;52.010;4.446;2022-12-10T10:59:05;1.10;99.90
41294;DHT22;27037;52.010;4.446;2022-12-10T11:01:52;1.20;99.90
41294;DHT22;27037;52.010;4.446;2022-12-10T11:04:24;1.20;99.90
41294;DHT22;27037;52.010;4.446;2022-12-10T11:06:54;1.20;99.90
41294;DHT22;27037;52.010;4.446;2022-12-10T11:09:26;1.20;99.90
41294;DHT22;27037;52.010;4.446;2022-12-10T11:12:20;1.30;99.90
41294;DHT22;27037;52.010;4.446;2022-12-10T11:14:44;1.30;99.90
41294;DHT22;27037;52.010;4.446;2022-12-10T11:17:19;1.20;99.90
41294;DHT22;27037;52.010;4.446;2022-12-10T11:22:28;1.40;99.90
41294;DHT22;27037;52.010;4.446;2022-12-10T11:24:54;1.40;99.90
41294;DHT22;27037;52.010;4.446;2022-12-10T11:27:54;1.40;99.90
41294;DHT22;27037;52.010;4.446;2022-12-10T11:30:24;1.40;99.90
41294;DHT22;27037;52.010;4.446;2022-12-10T11:35:43;1.40;99.90
41294;DHT22;27037;52.010;4.446;2022-12-10T11:38:27;1.40;99.90
41294;DHT22;27037;52.010;4.446;2022-12-10T11:41:02;1.40;99.90
41294;DHT22;27037;52.010;4.446;2022-12-10T11:44:08;1.40;99.90
41294;DHT22;27037;52.010;4.446;2022-12-10T11:52:17;1.40;99.90
41294;DHT22;27037;52.010;4.446;2022-12-10T12:05:19;1.50;99.90
41294;DHT22;27037;52.010;4.446;2022-12-10T12:10:50;1.60;99.90
41294;DHT22;27037;52.010;4.446;2022-12-10T12:13:29;1.60;99.90
41294;DHT22;27037;52.010;4.446;2022-12-10T12:16:05;1.60;99.90
41294;DHT22;27037;52.010;4.446;2022-12-10T12:21:08;1.60;99.90
41294;DHT22;27037;52.010;4.446;2022-12-10T12:23:46;1.50;99.90
41294;DHT22;27037;52.010;4.446;2022-12-10T12:31:46;1.60;99.90
41294;DHT22;27037;52.010;4.446;2022-12-10T12:34:21;1.60;99.90
41294;DHT22;27037;52.010;4.446;2022-12-10T12:36:49;1.60;99.90
41294;DHT22;27037;52.010;4.446;2022-12-10T12:39:46;1.60;99.90
41294;DHT22;27037;52.010;4.446;2022-12-10T12:42:34;1.60;99.90
41294;DHT22;27037;52.010;4.446;2022-12-10T12:45:24;1.60;99.90
41294;DHT22;27037;52.010;4.446;2022-12-10T12:48:06;1.60;99.90
41294;DHT22;27037;52.010;4.446;2022-12-10T12:50:54;1.60;99.90
41294;DHT22;27037;52.010;4.446;2022-12-10T12:53:24;1.70;99.90
41294;DHT22;27037;52.010;4.446;2022-12-10T12:56:34;1.70;99.90
41294;DHT22;27037;52.010;4.446;2022-12-10T13:01:56;1.70;99.90
41294;DHT22;27037;52.010;4.446;2022-12-10T13:04:24;1.70;99.90
41294;DHT22;27037;52.010;4.446;2022-12-10T13:09:45;1.80;99.90
41294;DHT22;27037;52.010;4.446;2022-12-10T13:17:34;1.80;99.90
41294;DHT22;27037;52.010;4.446;2022-12-10T13:23:28;1.80;99.90
41294;DHT22;27037;52.010;4.446;2022-12-10T13:31:32;1.80;99.90
41294;DHT22;27037;52.010;4.446;2022-12-10T13:47:46;2.00;99.90
41294;DHT22;27037;52.010;4.446;2022-12-10T14:06:12;2.60;99.90
41294;DHT22;27037;52.010;4.446;2022-12-10T14:08:40;2.50;99.90
41294;DHT22;27037;52.010;4.446;2022-12-10T14:11:20;2.40;99.90
41294;DHT22;27037;52.010;4.446;2022-12-10T14:13:51;2.40;99.90
41294;DHT22;27037;52.010;4.446;2022-12-10T14:16:21;2.40;99.90
41294;DHT22;27037;52.010;4.446;2022-12-10T14:18:57;2.40;99.90
41294;DHT22;27037;52.010;4.446;2022-12-10T14:21:24;2.40;99.90
41294;DHT22;27037;52.010;4.446;2022-12-10T14:23:50;2.40;99.90
41294;DHT22;27037;52.010;4.446;2022-12-10T14:26:36;2.40;99.90
41294;DHT22;27037;52.010;4.446;2022-12-10T14:29:16;2.40;99.90
41294;DHT22;27037;52.010;4.446;2022-12-10T14:31:47;2.40;99.90
41294;DHT22;27037;52.010;4.446;2022-12-10T14:34:18;2.40;99.90
41294;DHT22;27037;52.010;4.446;2022-12-10T14:36:48;2.40;99.90
41294;DHT22;27037;52.010;4.446;2022-12-10T14:39:31;2.40;99.90
41294;DHT22;27037;52.010;4.446;2022-12-10T14:42:01;2.50;99.90
41294;DHT22;27037;52.010;4.446;2022-12-10T14:44:27;2.50;99.90
41294;DHT22;27037;52.010;4.446;2022-12-10T14:47:15;2.50;99.90
41294;DHT22;27037;52.010;4.446;2022-12-10T14:49:43;2.50;99.90
41294;DHT22;27037;52.010;4.446;2022-12-10T14:52:13;2.50;99.90
41294;DHT22;27037;52.010;4.446;2022-12-10T14:54:39;2.50;99.90
41294;DHT22;27037;52.010;4.446;2022-12-10T14:57:08;2.50;99.90
41294;DHT22;27037;52.010;4.446;2022-12-10T14:59:42;2.50;99.90
41294;DHT22;27037;52.010;4.446;2022-12-10T15:02:26;2.50;99.90
41294;DHT22;27037;52.010;4.446;2022-12-10T15:04:53;2.60;99.90
41294;DHT22;27037;52.010;4.446;2022-12-10T15:07:31;2.50;99.90
41294;DHT22;27037;52.010;4.446;2022-12-10T15:10:02;2.60;99.90
41294;DHT22;27037;52.010;4.446;2022-12-10T15:12:46;2.60;99.90
41294;DHT22;27037;52.010;4.446;2022-12-10T15:20:31;2.50;99.90
41294;DHT22;27037;52.010;4.446;2022-12-10T15:23:19;2.50;99.90
41294;DHT22;27037;52.010;4.446;2022-12-10T15:26:21;2.50;99.90
41294;DHT22;27037;52.010;4.446;2022-12-10T15:28:52;2.60;99.90
41294;DHT22;27037;52.010;4.446;2022-12-10T15:31:30;2.60;99.90
41294;DHT22;27037;52.010;4.446;2022-12-10T15:34:00;2.60;99.90
41294;DHT22;27037;52.010;4.446;2022-12-10T15:36:52;2.60;99.90
41294;DHT22;27037;52.010;4.446;2022-12-10T15:39:46;2.60;99.90
41294;DHT22;27037;52.010;4.446;2022-12-10T15:42:37;2.60;99.90
41294;DHT22;27037;52.010;4.446;2022-12-10T15:45:23;2.60;99.90
41294;DHT22;27037;52.010;4.446;2022-12-10T15:47:56;2.60;99.90
41294;DHT22;27037;52.010;4.446;2022-12-10T15:50:24;2.60;99.90
41294;DHT22;27037;52.010;4.446;2022-12-10T15:52:51;2.60;99.90
41294;DHT22;27037;52.010;4.446;2022-12-10T15:55:17;2.60;99.90
41294;DHT22;27037;52.010;4.446;2022-12-10T15:57:43;2.60;99.90
41294;DHT22;27037;52.010;4.446;2022-12-10T16:00:26;2.60;99.90
41294;DHT22;27037;52.010;4.446;2022-12-10T16:03:14;2.70;99.90
41294;DHT22;27037;52.010;4.446;2022-12-10T16:05:41;2.70;99.90
41294;DHT22;27037;52.010;4.446;2022-12-10T16:08:17;2.60;99.90
41294;DHT22;27037;52.010;4.446;2022-12-10T16:10:44;2.70;99.90
41294;DHT22;27037;52.010;4.446;2022-12-10T16:13:23;2.60;99.90
41294;DHT22;27037;52.010;4.446;2022-12-10T16:16:10;2.60;99.90
41294;DHT22;27037;52.010;4.446;2022-12-10T16:18:36;2.70;99.90
41294;DHT22;27037;52.010;4.446;2022-12-10T16:21:06;2.70;99.90
41294;DHT22;27037;52.010;4.446;2022-12-10T16:23:33;2.70;99.90
41294;DHT22;27037;52.010;4.446;2022-12-10T16:26:00;2.70;99.90
41294;DHT22;27037;52.010;4.446;2022-12-10T16:28:26;2.70;99.90
41294;DHT22;27037;52.010;4.446;2022-12-10T16:30:59;2.70;99.90
41294;DHT22;27037;52.010;4.446;2022-12-10T16:33:26;2.70;99.90
41294;DHT22;27037;52.010;4.446;2022-12-10T16:35:54;2.70;99.90
41294;DHT22;27037;52.010;4.446;2022-12-10T16:38:21;2.80;99.90
41294;DHT22;27037;52.010;4.446;2022-12-10T16:40:48;2.70;99.90
41294;DHT22;27037;52.010;4.446;2022-12-10T16:43:19;2.80;99.90
41294;DHT22;27037;52.010;4.446;2022-12-10T16:45:47;2.80;99.90
41294;DHT22;27037;52.010;4.446;2022-12-10T16:48:13;2.80;99.90
41294;DHT22;27037;52.010;4.446;2022-12-10T16:50:40;2.80;99.90
41294;DHT22;27037;52.010;4.446;2022-12-10T16:53:27;2.80;99.90
41294;DHT22;27037;52.010;4.446;2022-12-10T16:55:55;2.80;99.90
41294;DHT22;27037;52.010;4.446;2022-12-10T16:58:21;2.70;99.90
41294;DHT22;27037;52.010;4.446;2022-12-10T17:00:50;2.80;99.90
41294;DHT22;27037;52.010;4.446;2022-12-10T17:03:19;2.80;99.90
41294;DHT22;27037;52.010;4.446;2022-12-10T17:05:51;2.70;99.90
41294;DHT22;27037;52.010;4.446;2022-12-10T17:08:18;2.70;99.90
41294;DHT22;27037;52.010;4.446;2022-12-10T17:10:44;2.70;99.90
41294;DHT22;27037;52.010;4.446;2022-12-10T17:13:28;2.70;99.90
41294;DHT22;27037;52.010;4.446;2022-12-10T17:15:55;2.70;99.90
41294;DHT22;27037;52.010;4.446;2022-12-10T17:18:21;2.80;99.90
41294;DHT22;27037;52.010;4.446;2022-12-10T17:20:47;2.80;99.90
41294;DHT22;27037;52.010;4.446;2022-12-10T17:23:13;2.70;99.90
41294;DHT22;27037;52.010;4.446;2022-12-10T17:25:39;2.80;99.90
41294;DHT22;27037;52.010;4.446;2022-12-10T17:28:10;2.80;99.90
41294;DHT22;27037;52.010;4.446;2022-12-10T17:30:37;2.80;99.90
41294;DHT22;27037;52.010;4.446;2022-12-10T17:33:03;2.80;99.90
41294;DHT22;27037;52.010;4.446;2022-12-10T17:35:29;2.80;99.90
41294;DHT22;27037;52.010;4.446;2022-12-10T17:37:54;2.80;99.90
41294;DHT22;27037;52.010;4.446;2022-12-10T17:40:21;2.80;99.90
41294;DHT22;27037;52.010;4.446;2022-12-10T17:42:48;2.80;99.90
41294;DHT22;27037;52.010;4.446;2022-12-10T17:45:17;2.80;99.90
41294;DHT22;27037;52.010;4.446;2022-12-10T17:47:43;2.80;99.90
41294;DHT22;27037;52.010;4.446;2022-12-10T17:50:30;2.80;99.90
41294;DHT22;27037;52.010;4.446;2022-12-10T17:53:02;2.80;99.90
41294;DHT22;27037;52.010;4.446;2022-12-10T17:55:28;2.70;99.90
41294;DHT22;27037;52.010;4.446;2022-12-10T17:57:55;2.70;99.90
41294;DHT22;27037;52.010;4.446;2022-12-10T18:00:24;2.70;99.90